createdAt,value
2022-09-24T00:00:09.297Z,100858.78
2022-09-24T00:01:16.199Z,100859.84
2022-09-24T00:02:18.662Z,100861.47
2022-09-24T00:03:22.800Z,100852.00
2022-09-24T00:04:26.227Z,100855.53
2022-09-24T00:05:29.277Z,100853.84
2022-09-24T00:06:34.737Z,100856.53
2022-09-24T00:07:37.846Z,100859.44
2022-09-24T00:08:40.137Z,100857.59
2022-09-24T00:09:43.462Z,100864.81
2022-09-24T00:10:48.953Z,100861.28
2022-09-24T00:11:52.420Z,100861.28
2022-09-24T00:12:54.587Z,100858.59
2022-09-24T00:13:59.897Z,100855.94
2022-09-24T00:15:01.979Z,100861.28
2022-09-24T00:16:08.138Z,100859.66
2022-09-24T00:17:10.374Z,100854.28
2022-09-24T00:18:14.609Z,100860.72
2022-09-24T00:19:16.750Z,100858.03
2022-09-24T00:20:22.700Z,100849.97
2022-09-24T00:21:27.240Z,100848.31
2022-09-24T00:22:30.290Z,100849.38
2022-09-24T00:23:32.534Z,100845.03
2022-09-24T00:24:53.168Z,100852.25
2022-09-24T00:26:13.962Z,100848.75
2022-09-24T00:27:17.024Z,100847.13
2022-09-24T00:28:19.104Z,100840.91
2022-09-24T00:29:25.048Z,100846.50
2022-09-24T00:30:27.147Z,100846.50
2022-09-24T00:31:30.351Z,100844.63
2022-09-24T00:32:32.442Z,100843.81
2022-09-24T00:33:36.225Z,100849.19
2022-09-24T00:34:39.316Z,100803.47
2022-09-24T00:35:41.655Z,100840.31
2022-09-24T00:36:46.847Z,100836.78
2022-09-24T00:37:49.077Z,100842.97
2022-09-24T00:38:53.875Z,100832.91
2022-09-24T00:39:56.623Z,100845.66
2022-09-24T00:40:59.863Z,100841.13
2022-09-24T00:42:01.964Z,100831.25
2022-09-24T00:43:24.249Z,100839.47
2022-09-24T00:44:54.673Z,100838.66
2022-09-24T00:46:05.223Z,100830.63
2022-09-24T00:47:13.926Z,100833.31
2022-09-24T00:48:17.210Z,100832.47
2022-09-24T00:49:20.590Z,100834.09
2022-09-24T00:50:27.210Z,100829.78
2022-09-24T00:51:32.964Z,100834.31
2022-09-24T00:52:38.442Z,100830.84
2022-09-24T00:53:43.119Z,100834.31
2022-09-24T00:54:45.747Z,100829.78
2022-09-24T00:55:52.918Z,100825.47
2022-09-24T00:56:57.454Z,100830.84
2022-09-24T00:58:04.300Z,100820.13
2022-09-24T00:59:11.588Z,100824.44
2022-09-24T01:00:16.695Z,100821.13
2022-09-24T01:01:21.215Z,100827.13
2022-09-24T01:02:25.048Z,100829.78
2022-09-24T01:03:28.957Z,100822.59
2022-09-24T01:04:32.023Z,100824.22
2022-09-24T01:05:35.824Z,100823.81
2022-09-24T01:06:38.906Z,100824.22
2022-09-24T01:07:41.159Z,100822.59
2022-09-24T01:08:44.586Z,100816.16
2022-09-24T01:09:46.758Z,100822.59
2022-09-24T01:11:05.933Z,100822.59
2022-09-24T01:12:18.870Z,100815.56
2022-09-24T01:13:34.213Z,100821.75
2022-09-24T01:14:52.987Z,100821.75
2022-09-24T01:16:05.186Z,100817.84
2022-09-24T01:17:16.161Z,100815.78
2022-09-24T01:18:28.213Z,100816.59
2022-09-24T01:19:50.191Z,100830.00
2022-09-24T01:21:25.412Z,100817.63
2022-09-24T01:22:40.030Z,100820.28
2022-09-24T01:24:00.866Z,100823.81
2022-09-24T01:25:13.440Z,100816.81
2022-09-24T01:26:32.950Z,100817.84
2022-09-24T01:27:56.524Z,100820.50
2022-09-24T01:29:20.480Z,100816.19
2022-09-24T01:30:25.354Z,100816.19
2022-09-24T01:31:33.964Z,100814.34
2022-09-24T01:32:42.134Z,100812.91
2022-09-24T01:33:46.581Z,100806.53
2022-09-24T01:34:58.378Z,100807.53
2022-09-24T01:36:08.274Z,100813.94
2022-09-24T01:37:14.782Z,100811.06
2022-09-24T01:38:20.064Z,100809.03
2022-09-24T01:39:24.132Z,100802.19
2022-09-24T01:40:29.045Z,100809.41
2022-09-24T01:41:33.654Z,100798.31
2022-09-24T01:42:38.371Z,100803.00
2022-09-24T01:43:41.530Z,100807.53
2022-09-24T01:44:45.072Z,100808.59
2022-09-24T01:45:48.841Z,100813.94
2022-09-24T01:46:51.143Z,100805.06
2022-09-24T01:47:54.252Z,100806.72
2022-09-24T01:48:56.336Z,100803.22
2022-09-24T01:49:59.549Z,100807.53
2022-09-24T01:51:08.555Z,100805.91
2022-09-24T01:52:16.525Z,100804.25
2022-09-24T01:53:21.586Z,100808.81
2022-09-24T01:54:30.381Z,100804.69
2022-09-24T01:55:38.378Z,100802.63
2022-09-24T01:56:46.223Z,100802.84
2022-09-24T01:57:53.341Z,100802.22
2022-09-24T01:59:00.838Z,100807.16
2022-09-24T02:00:09.823Z,100806.34
2022-09-24T02:01:19.249Z,100799.31
2022-09-24T02:02:28.844Z,100804.69
2022-09-24T02:03:36.412Z,100796.63
2022-09-24T02:04:43.668Z,100799.31
2022-09-24T02:05:50.527Z,100791.28
2022-09-24T02:07:02.003Z,100798.47
2022-09-24T02:08:09.120Z,100795.00
2022-09-24T02:09:34.118Z,100790.25
2022-09-24T02:10:46.491Z,100790.44
2022-09-24T02:11:53.351Z,100794.78
2022-09-24T02:12:59.364Z,100783.25
2022-09-24T02:14:07.891Z,100791.28
2022-09-24T02:15:17.481Z,100792.94
2022-09-24T02:16:25.606Z,100787.56
2022-09-24T02:17:32.698Z,100799.94
2022-09-24T02:18:40.336Z,100789.22
2022-09-24T02:19:42.895Z,100785.69
2022-09-24T02:20:46.735Z,100787.56
2022-09-24T02:21:51.294Z,100790.25
2022-09-24T02:22:57.743Z,100787.56
2022-09-24T02:24:03.353Z,100788.59
2022-09-24T02:25:10.681Z,100786.75
2022-09-24T02:26:13.095Z,100791.28
2022-09-24T02:27:16.739Z,100785.91
2022-09-24T02:28:19.583Z,100788.81
2022-09-24T02:29:23.215Z,100792.94
2022-09-24T02:30:26.966Z,100794.56
2022-09-24T02:31:32.360Z,100798.09
2022-09-24T02:32:36.622Z,100789.22
2022-09-24T02:34:00.638Z,100790.03
2022-09-24T02:35:07.286Z,100783.63
2022-09-24T02:36:09.684Z,100789.81
2022-09-24T02:37:15.139Z,100792.50
2022-09-24T02:38:18.395Z,100777.25
2022-09-24T02:39:22.034Z,100790.84
2022-09-24T02:40:24.341Z,100787.94
2022-09-24T02:41:29.662Z,100795.81
2022-09-24T02:42:32.084Z,100788.78
2022-09-24T02:43:36.514Z,100790.44
2022-09-24T02:44:38.672Z,100786.94
2022-09-24T02:45:43.226Z,100789.59
2022-09-24T02:46:45.962Z,100784.25
2022-09-24T02:47:49.129Z,100794.13
2022-09-24T02:48:51.249Z,100786.72
2022-09-24T02:49:54.353Z,100793.91
2022-09-24T02:50:56.462Z,100787.75
2022-09-24T02:51:59.673Z,100783.19
2022-09-24T02:53:02.483Z,100789.81
2022-09-24T02:54:06.340Z,100788.56
2022-09-24T02:55:08.643Z,100783.19
2022-09-24T02:56:11.686Z,100786.72
2022-09-24T02:57:13.841Z,100782.41
2022-09-24T02:58:16.909Z,100780.28
2022-09-24T02:59:19.356Z,100774.94
2022-09-24T03:00:22.434Z,100777.63
2022-09-24T03:01:26.082Z,100788.34
2022-09-24T03:02:29.322Z,100781.97
2022-09-24T03:03:31.716Z,100782.75
2022-09-24T03:04:35.314Z,100773.53
2022-09-24T03:05:37.416Z,100781.75
2022-09-24T03:06:40.511Z,100782.56
2022-09-24T03:07:43.792Z,100777.22
2022-09-24T03:08:47.076Z,100783.59
2022-09-24T03:09:49.178Z,100779.88
2022-09-24T03:10:52.640Z,100777.63
2022-09-24T03:11:54.747Z,100776.59
2022-09-24T03:12:58.238Z,100769.56
2022-09-24T03:14:00.569Z,100774.72
2022-09-24T03:15:03.798Z,100778.44
2022-09-24T03:16:07.545Z,100781.13
2022-09-24T03:17:12.034Z,100777.63
2022-09-24T03:18:15.050Z,100772.28
2022-09-24T03:19:18.114Z,100780.28
2022-09-24T03:20:20.241Z,100777.63
2022-09-24T03:21:24.013Z,100777.63
2022-09-24T03:22:26.097Z,100778.66
2022-09-24T03:23:29.230Z,100777.63
2022-09-24T03:24:31.281Z,100778.66
2022-09-24T03:25:34.457Z,100777.84
2022-09-24T03:26:37.303Z,100780.50
2022-09-24T03:27:40.353Z,100774.34
2022-09-24T03:28:42.419Z,100781.34
2022-09-24T03:30:02.948Z,100774.34
2022-09-24T03:31:06.681Z,100772.28
2022-09-24T03:32:10.239Z,100775.38
2022-09-24T03:33:12.315Z,100777.03
2022-09-24T03:34:15.612Z,100778.06
2022-09-24T03:35:17.788Z,100782.19
2022-09-24T03:36:22.792Z,100781.34
2022-09-24T03:37:24.882Z,100775.97
2022-09-24T03:38:29.261Z,100780.50
2022-09-24T03:39:31.587Z,100769.00
2022-09-24T03:40:34.743Z,100773.31
2022-09-24T03:41:37.894Z,100774.94
2022-09-24T03:42:40.005Z,100782.97
2022-09-24T03:43:43.150Z,100777.63
2022-09-24T03:44:45.289Z,100770.00
2022-09-24T03:45:49.193Z,100767.09
2022-09-24T03:46:51.507Z,100769.00
2022-09-24T03:47:55.995Z,100770.63
2022-09-24T03:49:00.489Z,100773.53
2022-09-24T03:50:03.705Z,100770.84
2022-09-24T03:51:07.006Z,100769.00
2022-09-24T03:52:10.064Z,100770.00
2022-09-24T03:53:12.830Z,100769.00
2022-09-24T03:54:16.520Z,100778.06
2022-09-24T03:55:18.656Z,100732.81
2022-09-24T03:56:21.905Z,100772.69
2022-09-24T03:57:24.042Z,100768.38
2022-09-24T03:58:27.475Z,100773.53
2022-09-24T03:59:29.531Z,100771.06
2022-09-24T04:00:34.460Z,100766.50
2022-09-24T04:01:39.728Z,100766.50
2022-09-24T04:02:43.057Z,100764.66
2022-09-24T04:03:46.886Z,100771.66
2022-09-24T04:04:50.563Z,100768.16
2022-09-24T04:05:52.711Z,100761.97
2022-09-24T04:06:55.797Z,100762.78
2022-09-24T04:07:59.019Z,100763.63
2022-09-24T04:09:02.107Z,100754.75
2022-09-24T04:10:04.665Z,100759.28
2022-09-24T04:11:07.803Z,100764.66
2022-09-24T04:12:09.956Z,100760.34
2022-09-24T04:13:13.283Z,100758.44
2022-09-24T04:14:15.361Z,100754.97
2022-09-24T04:15:18.851Z,100764.03
2022-09-24T04:16:20.990Z,100755.19
2022-09-24T04:17:24.045Z,100757.25
2022-09-24T04:18:26.105Z,100751.66
2022-09-24T04:19:32.011Z,100752.72
2022-09-24T04:20:35.701Z,100755.41
2022-09-24T04:21:38.949Z,100757.25
2022-09-24T04:22:41.088Z,100748.59
2022-09-24T04:23:44.158Z,100757.47
2022-09-24T04:24:46.256Z,100757.47
2022-09-24T04:25:49.426Z,100756.41
2022-09-24T04:26:51.528Z,100757.47
2022-09-24T04:27:55.828Z,100751.28
2022-09-24T04:28:59.311Z,100753.75
2022-09-24T04:30:02.393Z,100751.28
2022-09-24T04:31:04.829Z,100758.50
2022-09-24T04:32:07.945Z,100748.59
2022-09-24T04:33:10.061Z,100750.44
2022-09-24T04:34:13.158Z,100746.97
2022-09-24T04:35:16.682Z,100744.28
2022-09-24T04:36:20.157Z,100755.00
2022-09-24T04:37:22.215Z,100751.28
2022-09-24T04:38:25.257Z,100754.19
2022-09-24T04:39:27.890Z,100753.34
2022-09-24T04:40:31.209Z,100754.19
2022-09-24T04:41:35.076Z,100757.69
2022-09-24T04:42:38.451Z,100748.81
2022-09-24T04:43:40.518Z,100754.19
2022-09-24T04:44:47.288Z,100747.97
2022-09-24T04:45:50.340Z,100747.97
2022-09-24T04:46:52.463Z,100749.03
2022-09-24T04:47:57.978Z,100742.00
2022-09-24T04:49:00.310Z,100751.72
2022-09-24T04:50:04.128Z,100748.41
2022-09-24T04:51:10.370Z,100740.19
2022-09-24T04:52:14.948Z,100743.28
2022-09-24T04:53:18.864Z,100745.94
2022-09-24T04:54:20.910Z,100740.59
2022-09-24T04:55:24.998Z,100732.81
2022-09-24T04:56:27.045Z,100745.34
2022-09-24T04:57:33.036Z,100748.03
2022-09-24T04:58:35.212Z,100741.03
2022-09-24T04:59:38.323Z,100749.88
2022-09-24T05:00:43.320Z,100745.34
2022-09-24T05:01:47.334Z,100743.72
2022-09-24T05:02:58.192Z,100744.13
2022-09-24T05:04:00.398Z,100750.09
2022-09-24T05:05:03.562Z,100742.88
2022-09-24T05:06:08.355Z,100750.09
2022-09-24T05:07:11.074Z,100751.75
2022-09-24T05:08:14.243Z,100748.25
2022-09-24T05:09:16.710Z,100746.38
2022-09-24T05:10:20.428Z,100748.84
2022-09-24T05:11:22.502Z,100749.69
2022-09-24T05:12:25.966Z,100743.72
2022-09-24T05:13:28.337Z,100744.31
2022-09-24T05:14:31.434Z,100738.97
2022-09-24T05:15:33.513Z,100747.00
2022-09-24T05:16:36.610Z,100744.09
2022-09-24T05:17:39.431Z,100746.78
2022-09-24T05:18:42.539Z,100737.91
2022-09-24T05:19:44.761Z,100750.88
2022-09-24T05:20:47.864Z,100750.88
2022-09-24T05:21:51.286Z,100736.84
2022-09-24T05:22:54.450Z,100742.63
2022-09-24T05:23:56.546Z,100743.66
2022-09-24T05:24:59.682Z,100743.44
2022-09-24T05:26:20.123Z,100735.66
2022-09-24T05:27:23.797Z,100747.97
2022-09-24T05:28:27.167Z,100744.50
2022-09-24T05:29:29.230Z,100747.19
2022-09-24T05:30:32.266Z,100747.19
2022-09-24T05:31:34.404Z,100731.91
2022-09-24T05:32:37.579Z,100750.44
2022-09-24T05:33:39.656Z,100753.13
2022-09-24T05:34:44.350Z,100745.91
2022-09-24T05:35:53.526Z,100742.00
2022-09-24T05:36:58.278Z,100730.66
2022-09-24T05:38:01.347Z,100743.00
2022-09-24T05:39:04.134Z,100735.84
2022-09-24T05:40:22.338Z,100744.69
2022-09-24T05:41:25.503Z,100745.69
2022-09-24T05:42:28.575Z,100747.38
2022-09-24T05:43:31.833Z,100747.16
2022-09-24T05:44:35.584Z,100747.94
2022-09-24T05:45:37.695Z,100745.25
2022-09-24T05:46:40.909Z,100736.25
2022-09-24T05:47:43.145Z,100750.22
2022-09-24T05:48:46.180Z,100744.84
2022-09-24T05:49:48.231Z,100743.81
2022-09-24T05:50:55.193Z,100746.28
2022-09-24T05:51:59.071Z,100745.44
2022-09-24T05:53:02.660Z,100745.22
2022-09-24T05:54:04.946Z,100743.38
2022-09-24T05:55:10.071Z,100745.03
2022-09-24T05:56:13.420Z,100747.72
2022-09-24T05:57:15.922Z,100749.34
2022-09-24T05:58:19.235Z,100745.84
2022-09-24T05:59:21.309Z,100743.75
2022-09-24T06:00:24.436Z,100739.22
2022-09-24T06:01:29.980Z,100744.59
2022-09-24T06:02:32.315Z,100748.91
2022-09-24T06:03:35.729Z,100746.22
2022-09-24T06:04:37.811Z,100743.31
2022-09-24T06:05:44.338Z,100745.78
2022-09-24T06:06:46.358Z,100754.66
2022-09-24T06:07:52.421Z,100748.25
2022-09-24T06:08:55.157Z,100749.09
2022-09-24T06:09:59.282Z,100748.06
2022-09-24T06:11:05.347Z,100745.38
2022-09-24T06:12:10.839Z,100747.84
2022-09-24T06:13:14.209Z,100742.88
2022-09-24T06:14:17.677Z,100749.69
2022-09-24T06:15:20.783Z,100753.00
2022-09-24T06:16:23.860Z,100758.34
2022-09-24T06:17:26.167Z,100757.31
2022-09-24T06:18:29.664Z,100762.66
2022-09-24T06:19:31.829Z,100753.59
2022-09-24T06:20:34.889Z,100757.91
2022-09-24T06:21:37.959Z,100756.06
2022-09-24T06:22:40.109Z,100756.88
2022-09-24T06:23:46.052Z,100756.88
2022-09-24T06:24:49.084Z,100755.00
2022-09-24T06:25:51.230Z,100756.88
2022-09-24T06:26:54.299Z,100753.97
2022-09-24T06:28:00.291Z,100754.78
2022-09-24T06:29:05.170Z,100762.84
2022-09-24T06:30:08.906Z,100758.53
2022-09-24T06:31:12.610Z,100762.22
2022-09-24T06:32:14.831Z,100757.91
2022-09-24T06:33:20.029Z,100757.75
2022-09-24T06:34:22.072Z,100761.44
2022-09-24T06:35:25.532Z,100767.81
2022-09-24T06:36:28.587Z,100767.81
2022-09-24T06:37:30.732Z,100758.97
2022-09-24T06:38:33.961Z,100764.34
2022-09-24T06:39:37.373Z,100767.00
2022-09-24T06:40:43.216Z,100759.75
2022-09-24T06:41:50.566Z,100764.13
2022-09-24T06:42:54.718Z,100765.97
2022-09-24T06:44:01.785Z,100757.91
2022-09-24T06:45:04.814Z,100764.91
2022-09-24T06:46:12.089Z,100769.25
2022-09-24T06:47:17.937Z,100768.44
2022-09-24T06:48:22.943Z,100767.59
2022-09-24T06:49:26.329Z,100772.75
2022-09-24T06:50:34.384Z,100769.25
2022-09-24T06:51:36.533Z,100772.75
2022-09-24T06:52:39.574Z,100770.88
2022-09-24T06:53:41.650Z,100776.25
2022-09-24T06:54:46.069Z,100777.09
2022-09-24T06:55:48.949Z,100774.41
2022-09-24T06:56:52.651Z,100778.94
2022-09-24T06:58:02.216Z,100770.88
2022-09-24T06:59:06.653Z,100765.53
2022-09-24T07:00:12.257Z,100767.59
2022-09-24T07:01:15.410Z,100769.25
2022-09-24T07:02:17.623Z,100752.19
2022-09-24T07:03:21.577Z,100772.16
2022-09-24T07:04:24.782Z,100772.38
2022-09-24T07:05:26.903Z,100768.88
2022-09-24T07:06:50.556Z,100771.78
2022-09-24T07:07:52.702Z,100771.78
2022-09-24T07:08:56.682Z,100773.41
2022-09-24T07:10:02.038Z,100774.22
2022-09-24T07:11:05.196Z,100771.78
2022-09-24T07:12:08.863Z,100773.41
2022-09-24T07:13:13.113Z,100769.31
2022-09-24T07:14:15.531Z,100776.09
2022-09-24T07:15:18.716Z,100773.41
2022-09-24T07:16:21.923Z,100774.44
2022-09-24T07:17:24.221Z,100766.84
2022-09-24T07:18:27.506Z,100771.16
2022-09-24T07:19:30.001Z,100759.84
2022-09-24T07:20:37.059Z,100767.25
2022-09-24T07:21:41.841Z,100774.06
2022-09-24T07:22:45.166Z,100776.72
2022-09-24T07:23:47.806Z,100770.53
2022-09-24T07:24:50.917Z,100777.56
2022-09-24T07:25:57.498Z,100811.38
2022-09-24T07:27:00.906Z,100778.38
2022-09-24T07:28:07.538Z,100777.34
2022-09-24T07:29:11.116Z,100773.44
2022-09-24T07:30:13.408Z,100780.03
2022-09-24T07:31:17.819Z,100744.69
2022-09-24T07:32:28.977Z,100780.84
2022-09-24T07:33:35.008Z,100784.34
2022-09-24T07:34:37.633Z,100711.34
2022-09-24T07:35:41.540Z,100776.72
2022-09-24T07:36:44.084Z,100782.72
2022-09-24T07:37:47.292Z,100781.88
2022-09-24T07:38:49.387Z,100782.50
2022-09-24T07:39:52.509Z,100773.63
2022-09-24T07:40:59.157Z,100787.03
2022-09-24T07:42:02.653Z,100785.19
2022-09-24T07:43:11.827Z,100782.50
2022-09-24T07:44:15.158Z,100789.50
2022-09-24T07:45:18.358Z,100784.13
2022-09-24T07:46:21.344Z,100785.78
2022-09-24T07:47:24.547Z,100784.97
2022-09-24T07:48:27.646Z,100789.50
2022-09-24T07:49:32.242Z,100788.66
2022-09-24T07:50:39.789Z,100780.84
2022-09-24T07:51:42.127Z,100791.34
2022-09-24T07:52:45.231Z,100790.31
2022-09-24T07:53:47.332Z,100786.81
2022-09-24T07:54:52.318Z,100784.97
2022-09-24T07:56:00.526Z,100789.28
2022-09-24T07:57:03.709Z,100787.41
2022-09-24T07:58:05.804Z,100765.63
2022-09-24T07:59:11.251Z,100776.91
2022-09-24T08:00:14.664Z,100792.16
2022-09-24T08:01:18.003Z,100787.84
2022-09-24T08:02:20.437Z,100789.50
2022-09-24T08:03:23.531Z,100792.16
2022-09-24T08:04:25.696Z,100792.16
2022-09-24T08:05:29.028Z,100791.94
2022-09-24T08:06:38.281Z,100793.63
2022-09-24T08:07:43.084Z,100803.09
2022-09-24T08:08:45.319Z,100792.34
2022-09-24T08:09:48.372Z,100795.88
2022-09-24T08:10:50.705Z,100791.53
2022-09-24T08:11:55.442Z,100795.88
2022-09-24T08:13:01.600Z,100802.84
2022-09-24T08:14:04.703Z,100798.31
2022-09-24T08:15:07.814Z,100797.28
2022-09-24T08:16:10.928Z,100807.00
2022-09-24T08:17:13.600Z,100798.94
2022-09-24T08:18:16.675Z,100805.09
2022-09-24T08:19:20.240Z,100804.09
2022-09-24T08:20:24.712Z,100804.53
2022-09-24T08:21:27.998Z,100803.03
2022-09-24T08:22:31.451Z,100797.66
2022-09-24T08:23:35.138Z,100805.50
2022-09-24T08:24:37.324Z,100805.50
2022-09-24T08:25:40.437Z,100804.47
2022-09-24T08:26:42.511Z,100803.66
2022-09-24T08:27:47.091Z,100800.75
2022-09-24T08:28:51.444Z,100797.03
2022-09-24T08:29:53.493Z,100806.34
2022-09-24T08:30:59.223Z,100805.91
2022-09-24T08:32:01.675Z,100796.00
2022-09-24T08:33:06.620Z,100809.19
2022-09-24T08:34:08.784Z,100815.38
2022-09-24T08:35:11.916Z,100801.75
2022-09-24T08:36:14.344Z,100802.16
2022-09-24T08:37:18.096Z,100799.25
2022-09-24T08:38:21.038Z,100800.66
2022-09-24T08:39:24.170Z,100802.94
2022-09-24T08:40:30.261Z,100802.72
2022-09-24T08:41:49.398Z,100802.50
2022-09-24T08:42:58.951Z,100797.72
2022-09-24T08:44:06.394Z,100801.00
2022-09-24T08:45:29.649Z,100799.97
2022-09-24T08:46:55.873Z,100798.94
2022-09-24T08:48:13.818Z,100809.22
2022-09-24T08:49:22.318Z,100807.38
2022-09-24T08:50:27.487Z,100806.13
2022-09-24T08:51:45.726Z,100809.59
2022-09-24T08:53:02.883Z,100801.34
2022-09-24T08:54:09.331Z,100805.69
2022-09-24T08:55:16.510Z,100810.00
2022-09-24T08:56:25.925Z,100810.59
2022-09-24T08:57:28.860Z,100813.06
2022-09-24T08:58:44.489Z,100808.53
2022-09-24T08:59:52.182Z,100806.06
2022-09-24T09:00:58.982Z,100807.91
2022-09-24T09:02:20.660Z,100813.06
2022-09-24T09:03:31.061Z,100817.19
2022-09-24T09:04:44.366Z,100816.97
2022-09-24T09:05:54.585Z,100813.22
2022-09-24T09:07:09.598Z,100817.56
2022-09-24T09:08:44.995Z,100814.88
2022-09-24T09:09:45.878Z,100812.78
2022-09-24T09:10:53.220Z,100813.00
2022-09-24T09:12:01.995Z,100817.13
2022-09-24T09:13:11.282Z,100822.88
2022-09-24T09:14:18.742Z,100819.38
2022-09-24T09:15:26.133Z,100812.94
2022-09-24T09:16:35.267Z,100811.25
2022-09-24T09:17:45.369Z,100819.91
2022-09-24T09:18:51.989Z,100821.53
2022-09-24T09:19:56.681Z,100820.28
2022-09-24T09:21:12.223Z,100827.31
2022-09-24T09:22:18.505Z,100824.41
2022-09-24T09:23:22.578Z,100812.03
2022-09-24T09:24:34.521Z,100825.63
2022-09-24T09:25:37.635Z,100825.38
2022-09-24T09:26:39.903Z,100818.16
2022-09-24T09:27:42.966Z,100826.00
2022-09-24T09:28:46.165Z,100821.22
2022-09-24T09:29:53.327Z,100823.91
2022-09-24T09:31:07.003Z,100818.53
2022-09-24T09:32:32.417Z,100818.75
2022-09-24T09:33:46.250Z,100824.34
2022-09-24T09:34:59.074Z,100822.47
2022-09-24T09:36:11.342Z,100820.00
2022-09-24T09:37:28.191Z,100815.69
2022-09-24T09:38:38.885Z,100824.56
2022-09-24T09:39:45.568Z,100819.41
2022-09-24T09:40:57.950Z,100821.47
2022-09-24T09:42:08.778Z,100814.72
2022-09-24T09:43:14.213Z,100816.94
2022-09-24T09:44:22.223Z,100819.25
2022-09-24T09:45:32.535Z,100822.75
2022-09-24T09:46:41.730Z,100821.94
2022-09-24T09:47:47.502Z,100818.44
2022-09-24T09:48:55.538Z,100819.91
2022-09-24T09:50:03.928Z,100820.28
2022-09-24T09:51:07.847Z,100813.09
2022-09-24T09:52:15.739Z,100827.75
2022-09-24T09:53:22.236Z,100822.59
2022-09-24T09:54:36.273Z,100813.09
2022-09-24T09:55:40.585Z,100821.16
2022-09-24T09:56:45.975Z,100821.16
2022-09-24T09:57:52.703Z,100823.03
2022-09-24T09:59:06.901Z,100822.22
2022-09-24T10:00:28.889Z,100822.00
2022-09-24T10:01:33.295Z,100822.81
2022-09-24T10:02:43.120Z,100830.66
2022-09-24T10:03:49.751Z,100823.44
2022-09-24T10:04:57.382Z,100820.53
2022-09-24T10:06:01.887Z,100824.63
2022-09-24T10:07:07.155Z,100818.22
2022-09-24T10:08:22.762Z,100823.38
2022-09-24T10:09:24.932Z,100828.53
2022-09-24T10:10:29.466Z,100827.25
2022-09-24T10:11:31.580Z,100833.44
2022-09-24T10:12:34.717Z,100816.28
2022-09-24T10:13:36.976Z,100821.22
2022-09-24T10:14:40.089Z,100819.34
2022-09-24T10:15:51.219Z,100825.31
2022-09-24T10:16:55.362Z,100826.16
2022-09-24T10:18:01.655Z,100821.38
2022-09-24T10:19:03.971Z,100817.66
2022-09-24T10:20:11.021Z,100815.56
2022-09-24T10:21:28.300Z,100818.88
2022-09-24T10:22:32.144Z,100815.94
2022-09-24T10:23:39.432Z,100814.88
2022-09-24T10:24:44.580Z,100814.66
2022-09-24T10:25:52.811Z,100814.81
2022-09-24T10:26:56.014Z,100820.81
2022-09-24T10:28:21.155Z,100818.13
2022-09-24T10:29:44.673Z,100822.59
2022-09-24T10:30:58.410Z,100817.59
2022-09-24T10:32:01.050Z,100822.31
2022-09-24T10:33:06.473Z,100821.88
2022-09-24T10:34:21.937Z,100822.25
2022-09-24T10:35:28.964Z,100829.03
2022-09-24T10:36:33.672Z,100822.19
2022-09-24T10:37:35.789Z,100819.03
2022-09-24T10:38:40.318Z,100821.25
2022-09-24T10:39:42.636Z,100821.66
2022-09-24T10:40:45.873Z,100824.72
2022-09-24T10:41:49.718Z,100822.84
2022-09-24T10:43:00.916Z,100822.03
2022-09-24T10:44:07.565Z,100822.84
2022-09-24T10:45:14.154Z,100827.41
2022-09-24T10:46:43.199Z,100815.81
2022-09-24T10:47:56.689Z,100826.78
2022-09-24T10:49:05.951Z,100817.09
2022-09-24T10:50:25.339Z,100824.56
2022-09-24T10:51:40.597Z,100826.19
2022-09-24T10:52:51.351Z,100829.94
2022-09-24T10:54:03.513Z,100824.56
2022-09-24T10:55:18.092Z,100823.72
2022-09-24T10:56:28.411Z,100822.94
2022-09-24T10:57:39.669Z,100829.09
2022-09-24T10:59:05.866Z,100824.56
2022-09-24T11:00:22.829Z,100829.09
2022-09-24T11:01:33.490Z,100809.34
2022-09-24T11:02:49.114Z,100823.16
2022-09-24T11:04:05.719Z,100821.50
2022-09-24T11:05:13.402Z,100821.72
2022-09-24T11:06:25.111Z,100820.31
2022-09-24T11:07:55.149Z,100816.19
2022-09-24T11:09:15.258Z,100817.31
2022-09-24T11:10:26.431Z,100821.19
2022-09-24T11:11:42.698Z,100823.06
2022-09-24T11:12:54.460Z,100792.31
2022-09-24T11:14:11.007Z,100825.16
2022-09-24T11:15:30.560Z,100821.88
2022-09-24T11:16:53.655Z,100815.66
2022-09-24T11:18:11.171Z,100812.59
2022-09-24T11:19:25.965Z,100823.13
2022-09-24T11:20:35.153Z,100814.50
2022-09-24T11:21:57.950Z,100815.75
2022-09-24T11:23:23.759Z,100817.59
2022-09-24T11:24:49.763Z,100819.72
2022-09-24T11:26:02.590Z,100825.09
2022-09-24T11:27:24.407Z,100822.41
2022-09-24T11:28:45.689Z,100817.81
2022-09-24T11:30:09.668Z,100813.50
2022-09-24T11:31:23.477Z,100814.53
2022-09-24T11:32:33.783Z,100816.19
2022-09-24T11:33:57.825Z,100818.06
2022-09-24T11:35:19.731Z,100815.13
2022-09-24T11:36:39.628Z,100824.03
2022-09-24T11:37:56.774Z,100816.81
2022-09-24T11:39:22.233Z,100818.44
2022-09-24T11:40:48.912Z,100812.81
2022-09-24T11:42:01.221Z,100815.28
2022-09-24T11:43:21.493Z,100811.56
2022-09-24T11:44:57.865Z,100815.06
2022-09-24T11:46:17.543Z,100819.41
2022-09-24T11:47:37.149Z,100809.47
2022-09-24T11:49:17.114Z,100832.03
2022-09-24T11:50:31.139Z,100816.28
2022-09-24T11:51:48.792Z,100812.53
2022-09-24T11:52:54.418Z,100818.50
2022-09-24T11:54:03.957Z,100814.97
2022-09-24T11:55:15.805Z,100819.34
2022-09-24T11:56:23.915Z,100814.56
2022-09-24T11:57:28.797Z,100807.06
2022-09-24T11:58:36.595Z,100807.69
2022-09-24T11:59:46.661Z,100810.50
2022-09-24T12:00:55.789Z,100809.03
2022-09-24T12:02:05.775Z,100827.56
2022-09-24T12:03:15.615Z,100814.69
2022-09-24T12:04:27.544Z,100817.53
2022-09-24T12:05:34.803Z,100813.56
2022-09-24T12:06:42.249Z,100812.06
2022-09-24T12:07:50.118Z,100815.13
2022-09-24T12:08:57.947Z,100810.34
2022-09-24T12:10:06.232Z,100813.44
2022-09-24T12:11:14.072Z,100805.16
2022-09-24T12:12:22.927Z,100820.84
2022-09-24T12:13:30.101Z,100811.69
2022-09-24T12:14:44.469Z,100813.94
2022-09-24T12:15:51.728Z,100818.06
2022-09-24T12:17:00.140Z,100819.44
2022-09-24T12:18:08.168Z,100810.34
2022-09-24T12:19:17.931Z,100820.88
2022-09-24T12:20:28.478Z,100815.25
2022-09-24T12:21:35.119Z,100812.34
2022-09-24T12:22:39.634Z,100818.56
2022-09-24T12:23:45.721Z,100815.63
2022-09-24T12:24:51.864Z,100806.28
2022-09-24T12:25:56.782Z,100816.84
2022-09-24T12:27:02.559Z,100810.16
2022-09-24T12:28:10.988Z,100809.09
2022-09-24T12:29:56.754Z,100804.31
2022-09-24T12:31:20.613Z,100813.81
2022-09-24T12:32:49.040Z,100812.97
2022-09-24T12:33:56.155Z,100808.66
2022-09-24T12:35:09.161Z,100802.22
2022-09-24T12:36:18.936Z,100799.38
2022-09-24T12:37:28.773Z,100806.53
2022-09-24T12:38:36.756Z,100809.22
2022-09-24T12:39:49.225Z,100808.66
2022-09-24T12:41:09.889Z,100807.00
2022-09-24T12:42:14.622Z,100809.09